Time;durP1;ratioP1;P1;durP2;ratioP2;P2;SDS_P1;SDS_P2;PMS_P1;PMS_P2;Temp;Humidity;BMP_temperature;BMP_pressure;BME280_temperature;BME280_humidity;BME280_pressure;Samples;Min_cycle;Max_cycle;Signal;HPM_P1;HPM_P2
2021/09/09 00:00:05;;;;;;;30.40;16.52;;;;;;;13.57;51.82;101095.72;1744127;80;20978;-62
2021/09/09 00:02:34;;;;;;;30.00;16.12;;;;;;;13.57;51.82;101086.82;1772756;80;21060;-63
2021/09/09 00:05:01;;;;;;;28.32;15.43;;;;;;;13.56;51.89;101091.89;1772640;80;21795;-60
2021/09/09 00:07:30;;;;;;;31.48;16.65;;;;;;;13.53;51.96;101086.95;1771626;80;20947;-60
2021/09/09 00:09:57;;;;;;;31.93;17.50;;;;;;;13.50;52.02;101086.89;1773132;80;20971;-60
2021/09/09 00:12:26;;;;;;;;;;;;;;;13.49;52.10;101087.93;1775746;80;20986;-63
2021/09/09 00:14:55;;;;;;;28.87;16.57;;;;;;;13.48;52.13;101088.43;1771020;80;20098;-62
2021/09/09 00:17:25;;;;;;;31.90;16.52;;;;;;;13.42;52.14;101082.58;1770979;80;20966;-61
2021/09/09 00:19:52;;;;;;;30.75;15.98;;;;;;;13.38;52.31;101084.59;1773539;80;21022;-61
2021/09/09 00:22:19;;;;;;;28.20;16.23;;;;;;;13.36;52.43;101098.27;1772733;80;20982;-60
2021/09/09 00:24:47;;;;;;;33.83;16.53;;;;;;;13.36;52.46;101086.16;1774298;80;20904;-61
2021/09/09 00:27:15;;;;;;;31.10;16.23;;;;;;;13.36;52.50;101088.85;1764807;80;20990;-60
2021/09/09 00:29:44;;;;;;;34.53;16.35;;;;;;;13.35;52.55;101089.88;1770998;80;20943;-60
2021/09/09 00:32:12;;;;;;;30.80;15.72;;;;;;;13.34;52.60;101094.98;1775066;80;20974;-61
2021/09/09 00:34:39;;;;;;;34.80;15.48;;;;;;;13.32;52.62;101085.75;1744595;80;21042;-60
2021/09/09 00:37:08;;;;;;;33.92;15.70;;;;;;;13.30;52.64;101091.05;1775814;80;20888;-61
2021/09/09 00:39:36;;;;;;;30.70;15.80;;;;;;;13.24;52.78;101094.62;1775580;80;20934;-60
2021/09/09 00:42:04;;;;;;;28.83;14.53;;;;;;;13.18;52.93;101090.11;1774586;80;21165;-61
2021/09/09 00:44:31;;;;;;;32.17;14.93;;;;;;;13.13;53.06;101090.73;1773000;80;20978;-61
2021/09/09 00:47:04;;;;;;;35.25;16.25;;;;;;;13.05;53.26;101093.17;1777232;80;20948;-61
2021/09/09 00:49:32;;;;;;;31.05;16.48;;;;;;;12.99;53.43;101090.55;1772930;80;20982;-60
2021/09/09 00:52:01;;;;;;;33.05;15.55;;;;;;;12.93;53.64;101089.53;1774713;80;20978;-60
2021/09/09 00:54:29;;;;;;;29.87;15.00;;;;;;;12.87;53.86;101090.41;1775094;80;21147;-61
2021/09/09 00:56:56;;;;;;;31.27;14.30;;;;;;;12.81;54.07;101090.74;1776302;80;20939;-61
2021/09/09 00:59:23;;;;;;;28.60;15.75;;;;;;;12.77;54.29;101084.95;1774918;80;20986;-60
2021/09/09 01:01:52;;;;;;;30.55;14.87;;;;;;;12.77;54.39;101089.52;1771680;80;21033;-59
2021/09/09 01:04:20;;;;;;;30.48;15.35;;;;;;;12.75;54.47;101088.88;1743929;80;21002;-61
2021/09/09 01:06:48;;;;;;;29.90;16.13;;;;;;;12.73;54.61;101090.45;1774087;80;21152;-61
2021/09/09 01:09:15;;;;;;;29.05;14.70;;;;;;;12.69;54.70;101092.44;1774096;80;21877;-60
2021/09/09 01:11:44;;;;;;;;;;;;;;;12.67;54.94;101092.66;1772806;80;21009;-60
2021/09/09 01:14:15;;;;;;;30.90;16.12;;;;;;;12.67;55.00;101088.63;1752658;80;20150;-61
2021/09/09 01:16:45;;;;;;;29.82;15.25;;;;;;;12.71;54.86;101090.38;1772881;80;20951;-60
2021/09/09 01:19:12;;;;;;;32.03;15.23;;;;;;;12.74;55.10;101085.38;1774743;80;21930;-60
2021/09/09 01:21:41;;;;;;;;;;;;;;;12.77;55.04;101090.86;1775300;80;20939;-60
2021/09/09 01:24:17;;;;;;;28.02;15.13;;;;;;;12.78;55.13;101085.80;1770252;80;20125;-61
2021/09/09 01:26:59;;;;;;;36.17;15.98;;;;;;;12.78;55.10;101085.80;1777304;80;21052;-62
2021/09/09 01:29:30;;;;;;;33.67;16.85;;;;;;;12.79;55.11;101087.42;1772607;80;20938;-61
2021/09/09 01:31:57;;;;;;;37.08;16.37;;;;;;;12.78;55.10;101080.41;1779949;80;21232;-63
2021/09/09 01:34:24;;;;;;;37.28;16.40;;;;;;;12.77;55.18;101082.79;1739753;80;21484;-63
2021/09/09 01:36:52;;;;;;;31.68;16.48;;;;;;;12.75;55.19;101078.97;1776628;80;20982;-63
2021/09/09 01:39:19;;;;;;;36.70;16.17;;;;;;;12.72;55.27;101075.37;1779762;80;20922;-62
2021/09/09 01:41:51;;;;;;;34.23;16.10;;;;;;;12.71;55.36;101079.09;1777630;80;20950;-61
2021/09/09 01:44:19;;;;;;;33.00;16.23;;;;;;;12.71;55.34;101078.27;1777417;80;21149;-62
2021/09/09 01:46:46;;;;;;;31.70;15.40;;;;;;;12.65;55.32;101080.45;1779292;80;21007;-63
2021/09/09 01:49:13;;;;;;;29.77;15.20;;;;;;;12.61;55.46;101073.34;1779817;80;20990;-63
2021/09/09 01:51:40;;;;;;;31.77;14.78;;;;;;;12.59;55.58;101074.91;1781100;80;21500;-62
2021/09/09 01:54:07;;;;;;;32.85;15.28;;;;;;;12.58;55.68;101070.56;1736987;80;21009;-62
2021/09/09 01:56:34;;;;;;;30.17;15.63;;;;;;;12.61;55.67;101072.00;1736336;80;21154;-63
2021/09/09 01:59:02;;;;;;;31.48;15.75;;;;;;;12.63;55.59;101071.25;1777909;80;20958;-65
2021/09/09 02:01:29;;;;;;;34.63;15.93;;;;;;;12.62;55.56;101070.97;1776219;80;20995;-63
2021/09/09 02:03:58;;;;;;;27.48;15.05;;;;;;;12.58;55.60;101070.56;1780115;80;20977;-61
2021/09/09 02:06:24;;;;;;;28.10;14.07;;;;;;;12.56;55.74;101069.14;1779914;80;21591;-62
2021/09/09 02:08:51;;;;;;;30.27;14.87;;;;;;;12.55;55.82;101068.83;1772795;80;21161;-63
2021/09/09 02:11:20;;;;;;;28.30;15.80;;;;;;;12.55;55.80;101066.14;1768271;80;21417;-62
2021/09/09 02:13:48;;;;;;;27.80;15.13;;;;;;;12.53;55.74;101064.16;1771451;80;20935;-61
2021/09/09 02:16:17;;;;;;;27.85;14.28;;;;;;;12.47;55.83;101062.34;1769895;80;21505;-61
2021/09/09 02:18:44;;;;;;;37.10;15.35;;;;;;;12.43;56.06;101064.11;1770924;80;21013;-61
2021/09/09 02:21:13;;;;;;;29.25;14.38;;;;;;;12.43;56.12;101065.45;1770480;80;20907;-61
2021/09/09 02:23:40;;;;;;;26.25;14.95;;;;;;;12.43;56.12;101060.08;1768889;80;20876;-61
2021/09/09 02:26:07;;;;;;;26.90;13.88;;;;;;;12.40;56.12;101059.16;1774497;80;21045;-64
2021/09/09 02:28:34;;;;;;;27.55;15.15;;;;;;;12.39;56.28;101063.41;1741166;81;20998;-63
2021/09/09 02:31:01;;;;;;;27.05;14.33;;;;;;;12.37;56.37;101062.28;1771792;80;21017;-61
2021/09/09 02:33:28;;;;;;;28.92;14.93;;;;;;;12.38;56.33;101061.25;1773446;80;21130;-61
2021/09/09 02:35:55;;;;;;;32.23;15.35;;;;;;;12.35;56.32;101060.84;1733320;81;20997;-61
2021/09/09 02:38:22;;;;;;;37.08;16.35;;;;;;;12.30;56.40;101058.79;1772417;80;20926;-61
2021/09/09 02:40:50;;;;;;;27.85;15.60;;;;;;;12.25;56.52;101064.81;1772650;80;20922;-60
2021/09/09 02:43:17;;;;;;;29.20;15.40;;;;;;;12.23;56.68;101062.86;1768324;80;21540;-60
2021/09/09 02:45:44;;;;;;;27.98;14.85;;;;;;;12.24;56.73;101065.02;1774694;80;21211;-60
2021/09/09 02:48:12;;;;;;;30.17;15.23;;;;;;;12.23;56.80;101056.14;1742926;81;20966;-62
2021/09/09 02:50:39;;;;;;;28.32;14.63;;;;;;;12.25;56.86;101058.09;1769744;80;21516;-62
2021/09/09 02:53:07;;;;;;;29.25;14.25;;;;;;;12.26;56.87;101063.78;1745056;81;21504;-62
2021/09/09 02:55:34;;;;;;;31.97;15.43;;;;;;;12.29;56.91;101069.76;1771293;80;20996;-64
2021/09/09 02:58:01;;;;;;;29.87;15.15;;;;;;;12.31;56.88;101069.02;1734675;81;21837;-63
2021/09/09 03:00:30;;;;;;;32.60;15.25;;;;;;;12.32;56.82;101072.02;1770540;80;20930;-61
2021/09/09 03:02:58;;;;;;;32.75;15.28;;;;;;;12.32;56.74;101067.45;1773550;80;20915;-62
2021/09/09 03:05:25;;;;;;;25.48;14.83;;;;;;;12.32;56.77;101070.67;1767423;80;20994;-62
2021/09/09 03:07:52;;;;;;;33.10;15.18;;;;;;;12.32;56.80;101069.33;1743630;80;21086;-62
2021/09/09 03:10:19;;;;;;;26.87;14.10;;;;;;;12.32;56.75;101066.11;1740820;81;21165;-62
2021/09/09 03:12:46;;;;;;;25.12;13.43;;;;;;;12.32;56.73;101070.67;1770912;80;20982;-61
2021/09/09 03:15:15;;;;;;;31.75;15.25;;;;;;;12.32;56.74;101066.64;1772555;80;20973;-61
2021/09/09 03:17:43;;;;;;;26.62;14.98;;;;;;;12.33;56.78;101070.46;1770672;80;21532;-62
2021/09/09 03:20:13;;;;;;;26.97;14.78;;;;;;;12.34;56.76;101070.77;1771645;78;24948;-62
2021/09/09 03:22:40;;;;;;;32.13;14.93;;;;;;;12.32;56.66;101070.14;1768794;80;21155;-64
2021/09/09 03:25:08;;;;;;;29.82;15.25;;;;;;;12.28;56.74;101068.95;1772472;80;20939;-62
2021/09/09 03:27:35;;;;;;;30.43;14.83;;;;;;;12.25;56.88;101068.84;1735167;81;21047;-61
2021/09/09 03:30:04;;;;;;;31.23;14.00;;;;;;;12.24;57.00;101073.90;1770731;80;21030;-61
2021/09/09 03:32:31;;;;;;;34.78;15.90;;;;;;;12.19;56.93;101076.41;1770256;80;27136;-61
2021/09/09 03:34:58;;;;;;;30.40;14.58;;;;;;;12.16;57.08;101074.16;1769667;80;21109;-62
2021/09/09 03:37:27;;;;;;;;;;;;;;;12.17;57.20;101079.81;1774736;80;20978;-62
2021/09/09 03:39:54;;;;;;;27.02;13.83;;;;;;;12.20;57.20;101075.36;1771839;80;20189;-61
2021/09/09 03:42:21;;;;;;;29.57;13.68;;;;;;;12.21;57.11;101075.67;1767286;80;21424;-61
2021/09/09 03:44:48;;;;;;;24.43;14.05;;;;;;;12.25;57.07;101076.09;1771495;80;20982;-61
2021/09/09 03:47:16;;;;;;;34.48;14.00;;;;;;;12.28;57.00;101079.70;1769922;80;22383;-60
2021/09/09 03:49:43;;;;;;;26.37;12.65;;;;;;;12.31;56.93;101082.45;1736285;80;20986;-59
2021/09/09 03:52:10;;;;;;;26.00;13.53;;;;;;;12.32;56.89;101082.24;1742147;80;21441;-60
2021/09/09 03:54:37;;;;;;;28.92;13.28;;;;;;;12.37;56.81;101075.73;1770450;80;20967;-58
2021/09/09 03:57:04;;;;;;;27.98;14.90;;;;;;;12.44;56.69;101081.09;1771597;80;20962;-61
2021/09/09 03:59:31;;;;;;;26.52;14.13;;;;;;;12.49;56.54;101079.10;1772259;80;21103;-59
2021/09/09 04:02:02;;;;;;;29.07;13.75;;;;;;;12.52;56.44;101081.36;1769762;80;20934;-60
2021/09/09 04:04:28;;;;;;;27.52;14.05;;;;;;;12.55;56.40;101083.63;1770944;80;20942;-61
2021/09/09 04:06:56;;;;;;;26.57;13.62;;;;;;;12.58;56.27;101085.34;1736396;80;21734;-60
2021/09/09 04:09:23;;;;;;;28.50;14.33;;;;;;;12.59;56.10;101082.97;1774381;80;21022;-63
2021/09/09 04:11:50;;;;;;;30.00;14.55;;;;;;;12.60;56.03;101088.67;1768775;80;21883;-62
2021/09/09 04:14:18;;;;;;;24.87;14.58;;;;;;;12.61;56.07;101084.92;1771076;80;21077;-61
2021/09/09 04:16:45;;;;;;;27.65;13.65;;;;;;;12.79;55.97;101079.35;1734863;81;21480;-62
2021/09/09 04:19:14;;;;;;;30.88;12.90;;;;;;;13.45;55.26;101086.18;1768669;80;20994;-64
2021/09/09 04:21:42;;;;;;;22.37;13.32;;;;;;;14.53;53.22;101090.80;1769786;80;20978;-62
2021/09/09 04:24:10;;;;;;;36.85;13.50;;;;;;;15.67;50.52;101078.32;1734372;80;21163;-62
2021/09/09 04:26:37;;;;;;;26.57;13.70;;;;;;;16.78;47.83;101076.08;1764641;80;21547;-70
2021/09/09 04:29:05;;;;;;;23.27;13.03;;;;;;;17.81;45.40;101068.81;1736085;81;20974;-68
2021/09/09 04:31:34;;;;;;;;;;;;;;;18.77;42.98;101071.67;1765075;80;20994;-64
2021/09/09 04:34:01;;;;;;;24.80;13.83;;;;;;;19.66;40.79;101073.52;1737720;80;20159;-64
2021/09/09 04:36:28;;;;;;;23.38;12.23;;;;;;;20.37;39.22;101068.19;1764402;80;21162;-63
2021/09/09 04:38:55;;;;;;;21.75;12.80;;;;;;;21.07;37.78;101071.08;1768470;80;21524;-65
2021/09/09 04:41:24;;;;;;;22.48;13.93;;;;;;;21.70;36.46;101070.80;1763546;80;20951;-64
2021/09/09 04:43:51;;;;;;;21.40;13.18;;;;;;;22.34;35.41;101076.65;1766136;80;20966;-64
2021/09/09 04:46:18;;;;;;;21.82;13.18;;;;;;;22.94;34.42;101073.84;1766247;80;21078;-64
2021/09/09 04:48:45;;;;;;;22.32;12.60;;;;;;;23.50;33.54;101078.06;1765626;80;21100;-63
2021/09/09 04:51:12;;;;;;;18.07;11.63;;;;;;;24.03;32.82;101076.42;1726776;81;21053;-65
2021/09/09 04:53:40;;;;;;;20.80;12.10;;;;;;;24.55;31.93;101071.13;1765193;80;21010;-65
2021/09/09 04:56:09;;;;;;;19.17;12.10;;;;;;;25.04;31.24;101072.60;1743151;80;20995;-62
2021/09/09 04:58:36;;;;;;;20.23;11.67;;;;;;;25.28;30.91;101073.03;1764635;80;21064;-62
2021/09/09 05:01:04;;;;;;;19.25;12.45;;;;;;;24.97;30.96;101074.37;1730933;80;21152;-63
2021/09/09 05:03:32;;;;;;;;;;;;;;;24.82;31.23;101077.33;1765896;80;20967;-67
2021/09/09 05:05:59;;;;;;;28.07;13.00;;;;;;;25.14;30.92;101073.81;1734163;80;20180;-65
2021/09/09 05:08:26;;;;;;;19.92;12.30;;;;;;;25.65;30.41;101072.14;1761353;80;20998;-66
2021/09/09 05:10:53;;;;;;;19.75;11.83;;;;;;;26.24;29.59;101072.94;1764720;80;20902;-68
2021/09/09 05:13:21;;;;;;;20.30;12.98;;;;;;;26.83;28.88;101074.98;1736765;80;21237;-67
2021/09/09 05:15:56;;;;;;;22.67;11.88;;;;;;;27.39;28.15;101072.80;1727425;81;20926;-65
2021/09/09 05:18:25;;;;;;;20.00;12.07;;;;;;;27.89;27.30;101067.03;1763531;78;21421;-68
2021/09/09 05:20:52;;;;;;;25.37;12.35;;;;;;;28.31;26.68;101069.42;1767582;80;21070;-65
2021/09/09 05:23:21;;;;;;;21.33;12.23;;;;;;;28.62;26.33;101069.34;1764135;80;20978;-64
2021/09/09 05:25:48;;;;;;;19.15;11.88;;;;;;;29.03;25.87;101067.20;1762293;80;21067;-65
2021/09/09 05:28:16;;;;;;;18.20;11.65;;;;;;;29.41;25.31;101059.60;1765276;80;20950;-66
2021/09/09 05:30:45;;;;;;;26.30;11.85;;;;;;;29.82;24.93;101060.93;1766982;80;21716;-65
2021/09/09 05:33:13;;;;;;;15.30;11.17;;;;;;;30.26;24.46;101060.69;1763553;80;21005;-65
2021/09/09 05:35:40;;;;;;;20.48;11.93;;;;;;;30.66;23.82;101065.78;1756424;80;20879;-65
2021/09/09 05:38:09;;;;;;;17.95;11.75;;;;;;;30.93;23.51;101060.82;1761192;80;21057;-68
2021/09/09 05:40:36;;;;;;;19.60;11.55;;;;;;;31.14;23.40;101059.44;1766626;80;21077;-67
2021/09/09 05:43:03;;;;;;;22.77;12.23;;;;;;;31.40;23.33;101059.72;1763487;80;20918;-66
2021/09/09 05:45:31;;;;;;;18.00;11.55;;;;;;;31.76;23.09;101058.18;1737229;80;20930;-66
2021/09/09 05:47:58;;;;;;;16.70;11.60;;;;;;;32.14;22.60;101056.45;1763081;80;21009;-68
2021/09/09 05:50:27;;;;;;;23.10;11.20;;;;;;;32.48;22.22;101056.27;1761839;80;20879;-66
2021/09/09 05:52:54;;;;;;;21.75;11.38;;;;;;;32.81;21.88;101054.65;1766175;80;20927;-65
2021/09/09 05:55:21;;;;;;;19.23;10.73;;;;;;;33.11;21.53;101047.91;1762071;80;21549;-64
2021/09/09 05:57:48;;;;;;;22.37;12.88;;;;;;;33.34;21.43;101048.16;1760860;80;20939;-66
2021/09/09 06:00:15;;;;;;;16.50;11.05;;;;;;;33.59;21.18;101050.77;1767153;80;20986;-66
2021/09/09 06:02:46;;;;;;;20.08;11.28;;;;;;;33.73;21.01;101044.14;1762540;80;21168;-65
2021/09/09 06:05:13;;;;;;;19.45;11.30;;;;;;;33.98;20.54;101042.56;1764666;80;21575;-66
2021/09/09 06:07:40;;;;;;;19.40;11.15;;;;;;;34.23;20.44;101044.51;1767896;80;20970;-66
2021/09/09 06:10:09;;;;;;;17.70;10.78;;;;;;;34.55;20.50;101044.42;1764430;80;21003;-67
2021/09/09 06:12:37;;;;;;;18.75;10.68;;;;;;;34.90;20.00;101045.74;1768122;80;26513;-66
2021/09/09 06:15:06;;;;;;;18.15;10.63;;;;;;;35.25;19.79;101041.21;1766298;80;21137;-67
2021/09/09 06:17:33;;;;;;;18.50;11.05;;;;;;;35.52;19.59;101045.47;1764640;80;21010;-66
2021/09/09 06:20:02;;;;;;;17.25;10.58;;;;;;;35.73;19.43;101040.21;1719296;81;21049;-65
2021/09/09 06:22:28;;;;;;;;;;;;;;;35.96;18.99;101042.98;1771905;80;21057;-66
2021/09/09 06:24:56;;;;;;;17.52;10.95;;;;;;;36.14;18.88;101041.83;1765307;80;20102;-69
2021/09/09 06:27:23;;;;;;;;;;;;;;;36.24;18.86;101040.98;1769298;80;21763;-67
2021/09/09 06:29:50;;;;;;;;;;;;;;;36.36;18.95;101039.97;1778274;80;20139;-67
2021/09/09 06:32:17;;;;;;;13.53;10.32;;;;;;;36.48;18.83;101047.51;1744535;81;20440;-67
2021/09/09 06:34:44;;;;;;;14.95;10.30;;;;;;;36.65;18.76;101046.09;1765388;80;21057;-66
2021/09/09 06:37:11;;;;;;;17.10;10.25;;;;;;;36.87;18.45;101043.58;1770970;80;24122;-66
2021/09/09 06:39:39;;;;;;;19.55;11.18;;;;;;;37.08;18.36;101045.78;1746818;81;21095;-64
2021/09/09 06:42:06;;;;;;;16.87;10.45;;;;;;;37.22;18.35;101052.11;1770696;80;21050;-66
2021/09/09 06:44:33;;;;;;;19.67;11.38;;;;;;;37.34;18.29;101042.06;1735418;80;21033;-67
2021/09/09 06:47:01;;;;;;;18.75;10.65;;;;;;;37.35;18.39;101047.05;1745014;81;20974;-65
2021/09/09 06:49:29;;;;;;;17.87;11.15;;;;;;;37.32;18.31;101045.03;1766059;80;20982;-64
2021/09/09 06:51:55;;;;;;;;;;;;;;;37.36;18.64;101040.88;1774094;80;21208;-65
2021/09/09 06:54:22;;;;;;;15.58;10.03;;;;;;;37.42;18.51;101044.92;1739731;81;20165;-63
2021/09/09 06:56:50;;;;;;;16.77;10.15;;;;;;;37.39;18.54;101049.28;1764827;80;20998;-67
2021/09/09 06:59:17;;;;;;;12.75;9.23;;;;;;;37.39;18.61;101048.48;1738530;80;20994;-66
2021/09/09 07:01:44;;;;;;;15.60;9.23;;;;;;;37.41;18.48;101050.29;1766269;80;26428;-67
2021/09/09 07:04:14;;;;;;;12.50;8.88;;;;;;;37.45;18.46;101056.11;1769825;80;21137;-65
2021/09/09 07:06:41;;;;;;;12.95;8.95;;;;;;;37.46;18.52;101051.34;1765356;80;20907;-64
2021/09/09 07:09:08;;;;;;;13.22;8.80;;;;;;;37.36;18.56;101048.66;1769981;80;27343;-65
2021/09/09 07:11:36;;;;;;;11.93;8.45;;;;;;;37.20;18.75;101051.67;1723654;81;21511;-66
2021/09/09 07:14:04;;;;;;;11.00;8.43;;;;;;;37.06;18.65;101055.15;1725620;83;20956;-65
2021/09/09 07:16:31;;;;;;;14.68;9.23;;;;;;;36.91;19.02;101054.78;1703254;83;21125;-64
2021/09/09 07:18:58;;;;;;;13.95;8.75;;;;;;;36.75;19.08;101060.55;1725502;81;21063;-64
2021/09/09 07:21:25;;;;;;;12.43;8.23;;;;;;;36.52;19.28;101057.91;1676039;83;21019;-66
2021/09/09 07:23:52;;;;;;;10.30;8.98;;;;;;;36.17;19.32;101061.80;1704520;83;20986;-65
2021/09/09 07:26:19;;;;;;;11.48;8.60;;;;;;;35.64;19.84;101064.77;1675868;84;21018;-65
2021/09/09 07:28:46;;;;;;;13.58;8.38;;;;;;;34.92;20.59;101057.91;1701195;84;21125;-64
2021/09/09 07:31:14;;;;;;;16.37;8.90;;;;;;;34.13;21.60;101061.77;1697065;84;20986;-64
2021/09/09 07:33:41;;;;;;;13.38;8.50;;;;;;;33.32;22.64;101061.02;1708212;82;21530;-66
2021/09/09 07:36:10;;;;;;;15.13;8.93;;;;;;;32.57;23.12;101056.09;1701649;84;20935;-67
2021/09/09 07:38:38;;;;;;;12.00;8.35;;;;;;;31.69;24.02;101061.52;1700129;84;21077;-65
2021/09/09 07:41:05;;;;;;;13.62;9.43;;;;;;;30.93;25.01;101056.67;1692466;84;21097;-65
2021/09/09 07:43:34;;;;;;;14.47;8.65;;;;;;;30.33;25.86;101060.14;1701673;84;20985;-65
2021/09/09 07:46:00;;;;;;;11.40;8.33;;;;;;;29.87;26.44;101059.93;1701856;84;20865;-67
2021/09/09 07:48:28;;;;;;;14.70;9.63;;;;;;;29.49;27.00;101053.25;1701777;83;20975;-67
2021/09/09 07:50:55;;;;;;;;;;;;;;;29.17;27.43;101058.75;1703380;84;21042;-66
2021/09/09 07:53:23;;;;;;;14.60;8.78;;;;;;;28.83;27.83;101063.18;1680811;83;21080;-67
2021/09/09 07:55:50;;;;;;;12.90;8.10;;;;;;;28.54;28.66;101061.03;1701602;84;21076;-64
2021/09/09 07:58:17;;;;;;;9.48;7.92;;;;;;;28.34;28.95;101065.22;1675376;84;20938;-63
2021/09/09 08:00:44;;;;;;;16.35;8.48;;;;;;;28.17;29.36;101061.30;1698393;84;21026;-64
2021/09/09 08:03:11;;;;;;;11.55;7.58;;;;;;;28.01;29.41;101058.75;1675560;84;20993;-66
2021/09/09 08:05:38;;;;;;;10.30;7.50;;;;;;;27.83;29.50;101060.59;1700967;84;21201;-65
2021/09/09 08:08:07;;;;;;;13.53;8.03;;;;;;;27.69;29.97;101067.59;1671668;84;21587;-66
2021/09/09 08:10:35;;;;;;;14.53;8.50;;;;;;;27.55;29.65;101063.58;1688629;84;20992;-66
2021/09/09 08:13:03;;;;;;;12.93;7.97;;;;;;;27.40;30.22;101058.72;1701143;84;20950;-66
2021/09/09 08:15:30;;;;;;;11.30;7.67;;;;;;;27.18;30.60;101054.03;1701628;84;20975;-64
2021/09/09 08:21:27;;;;;;;9.28;7.30;;;;;;;26.77;31.10;101050.91;1672036;85;20982;-65
2021/09/09 08:27:15;;;;;;;9.90;7.75;;;;;;;26.31;32.00;101045.86;1690269;84;20998;-65
2021/09/09 08:33:12;;;;;;;15.18;7.55;;;;;;;26.05;32.72;101049.14;1677823;85;20982;-65
2021/09/09 08:39:33;;;;;;;11.80;7.08;;;;;;;25.88;32.39;101044.79;1674756;85;20977;-66
2021/09/09 08:45:32;;;;;;;10.03;7.35;;;;;;;25.81;32.99;101036.98;1676231;85;21608;-65
2021/09/09 08:51:53;;;;;;;9.08;6.97;;;;;;;25.73;33.07;101034.92;1692932;84;20948;-66
2021/09/09 08:54:20;;;;;;;10.10;7.00;;;;;;;25.61;33.44;101031.31;1693800;84;21051;-64
2021/09/09 08:56:48;;;;;;;11.55;8.00;;;;;;;25.60;33.76;101035.16;1694008;84;20911;-65
2021/09/09 08:59:15;;;;;;;12.63;7.47;;;;;;;25.53;33.45;101036.16;1694021;84;21116;-64
2021/09/09 09:02:08;;;;;;;10.53;7.75;;;;;;;25.46;33.40;101034.36;1668300;84;21146;-63
2021/09/09 09:04:36;;;;;;;11.50;8.03;;;;;;;25.42;33.55;101033.33;1693589;84;21528;-66
2021/09/09 09:07:08;;;;;;;12.18;7.45;;;;;;;25.32;33.70;101026.92;1693336;84;21456;-66
2021/09/09 09:09:36;;;;;;;11.03;7.85;;;;;;;25.27;33.61;101020.67;1693732;84;21568;-66
2021/09/09 09:12:08;;;;;;;10.63;8.03;;;;;;;25.26;33.62;101019.84;1673329;84;21081;-66
2021/09/09 09:14:35;;;;;;;12.80;7.25;;;;;;;25.24;33.72;101017.17;1690257;84;21977;-66
2021/09/09 09:17:05;;;;;;;9.75;7.37;;;;;;;25.16;33.94;101013.16;1663039;86;21042;-66
2021/09/09 09:19:38;;;;;;;11.43;7.70;;;;;;;25.11;34.21;101021.50;1678505;85;21446;-66
2021/09/09 09:22:12;;;;;;;13.78;7.40;;;;;;;25.06;34.05;101023.77;1690646;84;21542;-66
2021/09/09 09:24:49;;;;;;;14.00;7.12;;;;;;;24.98;34.22;101017.05;1698914;84;21105;-66
2021/09/09 09:27:20;;;;;;;16.00;7.55;;;;;;;24.92;34.50;101025.08;1756052;81;21140;-66
2021/09/09 09:30:09;;;;;;;14.75;7.53;;;;;;;24.94;34.76;101020.13;1722153;81;20961;-66
2021/09/09 09:32:45;;;;;;;10.53;7.70;;;;;;;24.94;34.46;101011.07;1720342;83;21797;-65
2021/09/09 09:35:19;;;;;;;15.03;8.40;;;;;;;24.92;34.64;101003.14;1755726;81;21033;-66
2021/09/09 09:38:00;;;;;;;11.40;7.58;;;;;;;24.90;34.93;101007.33;1756765;81;21061;-66
2021/09/09 09:40:31;;;;;;;14.28;7.58;;;;;;;24.86;34.76;101002.98;1756537;81;21149;-67
2021/09/09 09:42:59;;;;;;;10.90;6.95;;;;;;;24.77;34.93;101011.06;1756985;81;20958;-66
2021/09/09 09:45:26;;;;;;;;;;;;;;;24.70;35.21;101005.72;1759359;81;20997;-67
2021/09/09 09:47:53;;;;;;;11.53;7.20;;;;;;;24.53;35.26;101005.66;1756563;81;20106;-66
2021/09/09 09:50:22;;;;;;;10.10;7.70;;;;;;;24.40;35.88;101009.95;1720044;82;21019;-65
2021/09/09 09:52:50;;;;;;;19.45;10.08;;;;;;;24.36;35.96;101000.69;1756608;81;21162;-66
2021/09/09 09:55:17;;;;;;;11.45;7.75;;;;;;;24.34;36.29;101000.19;1756628;81;20930;-66
2021/09/09 09:57:54;;;;;;;11.35;7.20;;;;;;;24.34;36.26;100987.02;1755497;81;20907;-66
2021/09/09 10:00:23;;;;;;;12.20;8.80;;;;;;;24.35;36.35;100994.14;1715368;81;20966;-65
2021/09/09 10:02:51;;;;;;;10.05;7.65;;;;;;;24.33;35.71;101000.48;1736504;81;21435;-64
2021/09/09 10:05:18;;;;;;;11.93;8.38;;;;;;;24.26;35.69;100992.62;1714812;81;21157;-64
2021/09/09 10:07:45;;;;;;;15.08;8.53;;;;;;;24.20;35.96;100994.61;1759992;80;20943;-64
2021/09/09 10:10:12;;;;;;;16.48;11.97;;;;;;;24.18;36.17;100989.98;1756805;81;20986;-65
2021/09/09 10:12:43;;;;;;;14.95;8.08;;;;;;;24.21;36.38;100984.48;1757547;81;20990;-65
2021/09/09 10:15:12;;;;;;;15.98;10.10;;;;;;;24.27;35.83;100983.30;1756676;81;21557;-66
2021/09/09 10:17:40;;;;;;;16.15;7.70;;;;;;;24.29;35.93;100982.44;1757204;81;21130;-65
2021/09/09 10:20:42;;;;;;;13.32;8.70;;;;;;;24.31;35.63;100981.03;1756563;81;20855;-66
2021/09/09 10:23:11;;;;;;;13.08;9.73;;;;;;;24.29;35.14;100975.05;1701716;82;21109;-65
2021/09/09 10:25:57;;;;;;;14.60;7.78;;;;;;;24.29;35.20;100971.48;1752574;81;21551;-65
2021/09/09 10:28:46;;;;;;;11.53;7.30;;;;;;;24.34;35.70;100970.58;1755434;81;21017;-65
2021/09/09 10:31:18;;;;;;;10.32;7.72;;;;;;;24.39;35.84;100965.84;1720656;83;21240;-66
2021/09/09 10:33:53;;;;;;;12.78;8.75;;;;;;;24.41;36.34;100967.75;1756416;81;21516;-65
2021/09/09 10:36:44;;;;;;;10.78;7.95;;;;;;;24.45;36.65;100963.28;1720634;83;20966;-67
2021/09/09 10:39:19;;;;;;;10.23;7.08;;;;;;;24.52;36.20;100960.19;1748752;81;21461;-66
2021/09/09 10:41:48;;;;;;;9.58;6.78;;;;;;;24.54;35.91;100963.99;1755790;81;20980;-66
2021/09/09 10:44:16;;;;;;;11.73;7.55;;;;;;;24.56;36.19;100962.59;1756347;81;21152;-67
2021/09/09 10:46:45;;;;;;;13.90;8.40;;;;;;;24.61;36.04;100949.39;1726886;81;20895;-66
2021/09/09 10:49:19;;;;;;;11.93;8.08;;;;;;;24.61;35.70;100957.05;1756837;81;21097;-65
2021/09/09 10:55:24;;;;;;;10.88;7.30;;;;;;;24.59;36.38;100942.84;1753327;81;20990;-67
2021/09/09 11:01:58;;;;;;;17.45;11.85;;;;;;;24.61;36.33;100941.17;1755018;81;20986;-66
2021/09/09 11:07:56;;;;;;;13.32;7.78;;;;;;;24.53;37.12;100932.22;1751050;81;20944;-68
2021/09/09 11:14:17;;;;;;;11.95;7.95;;;;;;;24.46;37.43;100932.05;1718626;83;21074;-66
2021/09/09 11:20:16;;;;;;;12.82;7.65;;;;;;;24.42;38.13;100922.78;1752498;81;21033;-67
2021/09/09 11:30:00;;;;;;;14.78;8.00;;;;;;;24.28;35.56;100904.94;1717168;83;21001;-70
2021/09/09 11:32:28;;;;;;;13.88;7.97;;;;;;;24.27;36.53;100903.87;1717922;83;20946;-67
2021/09/09 11:35:10;;;;;;;15.20;9.48;;;;;;;24.24;37.47;100900.36;1718255;82;21487;-68
2021/09/09 11:37:46;;;;;;;11.28;8.15;;;;;;;24.20;37.83;100898.75;1704571;82;21128;-70
2021/09/09 11:40:14;;;;;;;11.73;8.48;;;;;;;24.20;37.71;100896.58;1718742;83;21503;-70
2021/09/09 11:42:41;;;;;;;14.50;8.20;;;;;;;24.17;37.79;100891.13;1679304;83;21084;-67
2021/09/09 11:45:10;;;;;;;13.43;7.90;;;;;;;24.16;37.98;100888.16;1718549;83;21093;-68
2021/09/09 11:47:36;;;;;;;;;;;;;;;24.12;37.81;100887.11;1720887;83;21653;-68
2021/09/09 11:50:06;;;;;;;13.15;8.10;;;;;;;24.05;37.92;100877.09;1718499;83;20150;-68
2021/09/09 11:52:34;;;;;;;;;;;;;;;23.94;38.43;100875.87;1720249;83;21418;-66
2021/09/09 11:55:15;;;;;;;16.73;8.45;;;;;;;23.90;38.77;100869.34;1717905;83;21091;-66
2021/09/09 11:57:43;;;;;;;11.53;7.85;;;;;;;23.90;38.69;100872.66;1683575;85;21114;-67
2021/09/09 12:00:13;;;;;;;10.60;7.12;;;;;;;23.92;38.51;100870.42;1717339;83;21426;-68
2021/09/09 12:02:42;;;;;;;11.10;6.47;;;;;;;23.94;37.17;100870.39;1717883;83;20990;-66
2021/09/09 12:05:09;;;;;;;12.53;7.90;;;;;;;23.97;36.94;100866.26;1682475;83;21421;-66
2021/09/09 12:07:36;;;;;;;12.73;7.80;;;;;;;23.96;36.87;100864.05;1716822;82;22150;-68
2021/09/09 12:10:10;;;;;;;13.53;8.63;;;;;;;23.94;37.86;100860.01;1717789;83;21516;-66